Accueil
METAR-TAF:

METAR-TAF

Aéroports :

Toulouse, France

Aéroport de Toulouse-Blagnac

latitude: 43-38N, longitude: 001-22E, altitude: 152 m

Observation

Le bulletin a été fait il y a 31 minutes, à 00:00 UTC
Vent calme
Température -1°C
Humidité 74%
Pression 1009 hPa
Visibilité: 7000 m

METAR: LFBO 240000Z AUTO 00000KT 7000 NSC M01/M05 Q1009 NOSIG

Heure: 01:31 (00:31 UTC)

Prévision

Le bulletin a été fait il y a 1 heure et 31 minutes, à 23:00 UTC
Prévision valable du 24 à 00 UTC au 25 à 06 UTC
Vent 2 kt de direction variable
Visibilité: 8000 m

TAF: LFBO 232300Z 2400/2506 VRB02KT 8000 NSC

Observations et prévisions météorologiques de plus de 4000 aéroports (messages METAR et TAF).

Les stations disponibles sont représentées par des disques jaunes et rouges sur la carte.

Passer la souris dessus pour voir le nom de la station.

Cliquer dessus pour voir les observations et prévisions météorologiques.

Pour changer de carte: cliquez sur les boutons verts avec une croix noire pour zoomer, sur le bouton vert avec un tiret pour effectuer un zoom arrière, ou sur les flèches vertes pour les cartes adjacentes.


METAR-TAF: